CheckWX is a tool to help pilots better visualize weather data.  It is not intended as a substitute for an official pre-flight weather briefing.

08:00:29 UTC

TJSJ TAF
Luis Munoz Marin International Airport
San Juan, Puerto Rico, USA
TJSJ 190528Z 1906/2006 VRB03KT P6SM SKC FM191430 08014KT P6SM FEW030 FM192300 VRB05KT P6SM SCT025

Mar-19@
06:00 UTC

Mar-19 @ 06:00 UTC

Mar-19@
14:30 UTC

Mar-19 @ 14:30 UTC

TJSJ 190528Z 1906/2006 VRB03KT P6SM SKC
Wind
  • Variable at 3 KTS
Cloud Levels
  • Clear skies

Mar-19@
14:30 UTC

Mar-19 @ 14:30 UTC

Mar-19@
23:00 UTC

Mar-19 @ 23:00 UTC

FM191430 08014KT P6SM FEW030

From

From Standard forecast or significant change

Wind
  • 080° at 14 KTS
Cloud Levels
  • Few at 3,000' AGL

Mar-19@
23:00 UTC

Mar-19 @ 23:00 UTC

Mar-20@
06:00 UTC

Mar-20 @ 06:00 UTC

FM192300 VRB05KT P6SM SCT025

From

From Standard forecast or significant change

Wind
  • Variable at 5 KTS
Cloud Levels
  • Scattered at 2,500' AGL